Time,TemperatureF,DewpointF,PressureIn,WindDirection,WindDirectionDegrees,WindSpeedMPH,WindSpeedGustMPH,Humidity,HourlyPrecipIn,Conditions,Clouds,dailyrainin,SoftwareType,DateUTC
2013-01-16 00:00:00,33.0,26.9,30.11,ENE,78,1.0,1.0,78,0.00,,,0.00,Wunderground v.1.15,2013-01-16 05:00:00,
2013-01-16 00:10:00,33.0,27.2,30.09,NE,50,2.0,2.0,79,0.00,,,0.00,Wunderground v.1.15,2013-01-16 05:10:00,
2013-01-16 00:20:00,33.0,27.2,30.10,NE,43,1.0,2.0,79,0.00,,,0.00,Wunderground v.1.15,2013-01-16 05:20:00,
2013-01-16 00:30:00,33.2,27.7,30.11,NE,44,1.0,3.0,80,0.00,,,0.00,Wunderground v.1.15,2013-01-16 05:30:00,
2013-01-16 00:40:00,33.4,28.2,30.10,NE,44,1.0,1.0,81,0.00,,,0.00,Wunderground v.1.15,2013-01-16 05:40:00,
2013-01-16 00:50:00,33.5,27.4,30.12,NE,44,0.0,1.0,78,0.00,,,0.00,Wunderground v.1.15,2013-01-16 05:50:00,
2013-01-16 01:00:00,33.5,28.0,30.11,NNE,27,0.0,0.0,80,0.00,,,0.00,Wunderground v.1.15,2013-01-16 06:00:00,
2013-01-16 01:10:00,33.5,28.0,30.11,NNE,28,1.0,1.0,80,0.00,,,0.00,Wunderground v.1.15,2013-01-16 06:10:00,
2013-01-16 01:20:00,33.4,27.6,30.10,NNE,27,1.0,2.0,79,0.00,,,0.00,Wunderground v.1.15,2013-01-16 06:20:00,
2013-01-16 01:30:00,33.5,27.7,30.10,NNE,29,0.0,0.0,79,0.00,,,0.00,Wunderground v.1.15,2013-01-16 06:30:00,
2013-01-16 01:40:00,33.7,28.2,30.09,NNE,30,0.0,1.0,80,0.00,,,0.00,Wunderground v.1.15,2013-01-16 06:40:00,
2013-01-16 01:50:00,33.7,28.2,30.09,NNE,29,1.0,1.0,80,0.00,,,0.00,Wunderground v.1.15,2013-01-16 06:50:00,
2013-01-16 02:00:00,33.9,28.4,30.09,NNE,30,0.0,0.0,80,0.00,,,0.00,Wunderground v.1.15,2013-01-16 07:00:00,
2013-01-16 02:10:00,34.0,28.2,30.09,NNE,30,0.0,0.0,79,0.00,,,0.00,Wunderground v.1.15,2013-01-16 07:10:00,
2013-01-16 02:20:00,34.2,28.4,30.08,NNE,29,0.0,0.0,79,0.00,,,0.00,Wunderground v.1.15,2013-01-16 07:20:00,
2013-01-16 02:30:00,34.0,27.9,30.08,NNE,30,0.0,1.0,78,0.00,,,0.00,Wunderground v.1.15,2013-01-16 07:30:00,
2013-01-16 02:40:00,33.9,29.0,30.09,NNE,30,0.0,0.0,82,0.00,,,0.00,Wunderground v.1.15,2013-01-16 07:40:00,
2013-01-16 02:50:00,34.1,28.6,30.09,NNE,30,0.0,0.0,80,0.00,,,0.00,Wunderground v.1.15,2013-01-16 07:50:00,
2013-01-16 03:00:00,34.1,28.0,30.08,NNE,30,0.0,0.0,78,0.00,,,0.00,Wunderground v.1.15,2013-01-16 08:00:00,
2013-01-16 03:10:00,34.0,28.2,30.08,NNE,30,0.0,0.0,79,0.00,,,0.00,Wunderground v.1.15,2013-01-16 08:10:00,
2013-01-16 03:20:00,33.9,27.8,30.08,NNE,30,0.0,0.0,78,0.00,,,0.00,Wunderground v.1.15,2013-01-16 08:20:00,
2013-01-16 03:30:00,33.7,28.2,30.08,NNE,30,0.0,0.0,80,0.00,,,0.00,Wunderground v.1.15,2013-01-16 08:30:00,
2013-01-16 03:40:00,33.9,28.7,30.08,NNE,30,0.0,0.0,81,0.00,,,0.00,Wunderground v.1.15,2013-01-16 08:40:00,
2013-01-16 03:50:00,33.7,28.8,30.09,NNE,30,0.0,0.0,82,0.00,,,0.00,Wunderground v.1.15,2013-01-16 08:50:00,
2013-01-16 04:00:00,33.8,28.9,30.07,NNE,30,0.0,0.0,82,0.00,,,0.00,Wunderground v.1.15,2013-01-16 09:00:00,
2013-01-16 04:10:00,34.0,28.5,30.07,NNE,30,0.0,0.0,80,0.00,,,0.00,Wunderground v.1.15,2013-01-16 09:10:00,
2013-01-16 04:20:00,33.7,27.9,30.06,NNE,30,0.0,1.0,79,0.00,,,0.00,Wunderground v.1.15,2013-01-16 09:20:00,
2013-01-16 04:30:00,33.5,28.6,30.07,NNE,30,0.0,0.0,82,0.00,,,0.00,Wunderground v.1.15,2013-01-16 09:30:00,
2013-01-16 04:40:00,33.3,28.4,30.07,NNE,30,0.0,0.0,82,0.00,,,0.00,Wunderground v.1.15,2013-01-16 09:40:00,
2013-01-16 04:50:00,33.5,28.3,30.06,NNE,30,0.0,0.0,81,0.00,,,0.00,Wunderground v.1.15,2013-01-16 09:50:00,
2013-01-16 05:00:00,33.7,28.5,30.07,NNE,30,0.0,0.0,81,0.00,,,0.00,Wunderground v.1.15,2013-01-16 10:00:00,
2013-01-16 05:10:00,33.6,29.3,30.07,NNE,30,0.0,0.0,84,0.00,,,0.00,Wunderground v.1.15,2013-01-16 10:10:00,
2013-01-16 05:20:00,33.7,28.8,30.07,NNE,30,0.0,0.0,82,0.00,,,0.00,Wunderground v.1.15,2013-01-16 10:20:00,
2013-01-16 05:30:00,33.6,29.0,30.06,NNE,30,0.0,1.0,83,0.00,,,0.00,Wunderground v.1.15,2013-01-16 10:30:00,
2013-01-16 05:40:00,33.6,28.7,30.05,NNE,29,0.0,0.0,82,0.00,,,0.00,Wunderground v.1.15,2013-01-16 10:40:00,
2013-01-16 05:50:00,33.7,29.4,30.05,NNE,30,0.0,0.0,84,0.00,,,0.00,Wunderground v.1.15,2013-01-16 10:50:00,
2013-01-16 06:00:00,33.7,28.8,30.04,NNE,29,0.0,0.0,82,0.00,,,0.00,Wunderground v.1.15,2013-01-16 11:00:00,
2013-01-16 06:10:00,33.4,28.5,30.04,NNE,30,0.0,0.0,82,0.00,,,0.00,Wunderground v.1.15,2013-01-16 11:10:00,
2013-01-16 06:20:00,33.2,28.6,30.05,NNE,29,0.0,0.0,83,0.00,,,0.00,Wunderground v.1.15,2013-01-16 11:20:00,
2013-01-16 06:30:00,32.9,28.6,30.06,NNE,29,0.0,0.0,84,0.00,,,0.00,Wunderground v.1.15,2013-01-16 11:30:00,
2013-01-16 06:40:00,33.0,28.7,30.05,NW,312,0.0,1.0,84,0.00,,,0.00,Wunderground v.1.15,2013-01-16 11:40:00,
2013-01-16 06:50:00,33.0,28.7,30.06,NNW,333,1.0,1.0,84,0.00,,,0.00,Wunderground v.1.15,2013-01-16 11:50:00,
2013-01-16 07:00:00,32.8,28.5,30.05,NNW,332,1.0,1.0,84,0.00,,,0.00,Wunderground v.1.15,2013-01-16 12:00:00,
2013-01-16 07:10:00,32.8,28.5,30.04,North,350,1.0,1.0,84,0.00,,,0.00,Wunderground v.1.15,2013-01-16 12:10:00,
2013-01-16 07:20:00,32.8,28.8,30.06,North,351,1.0,1.0,85,0.00,,,0.00,Wunderground v.1.15,2013-01-16 12:20:00,
2013-01-16 07:30:00,32.6,28.3,30.06,North,351,0.0,0.0,84,0.00,,,0.00,Wunderground v.1.15,2013-01-16 12:30:00,
2013-01-16 07:40:00,32.8,28.5,30.06,North,351,0.0,1.0,84,0.00,,,0.00,Wunderground v.1.15,2013-01-16 12:40:00,
2013-01-16 07:50:00,33.0,28.7,30.08,North,351,0.0,0.0,84,0.00,,,0.00,Wunderground v.1.15,2013-01-16 12:50:00,
2013-01-16 08:00:00,32.9,28.0,30.08,North,351,0.0,0.0,82,0.00,,,0.00,Wunderground v.1.15,2013-01-16 13:00:00,
2013-01-16 08:10:00,32.7,28.1,30.08,NNW,335,0.0,2.0,83,0.00,,,0.00,Wunderground v.1.15,2013-01-16 13:10:00,
2013-01-16 08:20:00,32.6,27.7,30.08,NW,323,1.0,1.0,82,0.00,,,0.00,Wunderground v.1.15,2013-01-16 13:20:00,
2013-01-16 08:30:00,32.6,28.0,30.09,NW,323,0.0,0.0,83,0.00,,,0.00,Wunderground v.1.15,2013-01-16 13:30:00,
2013-01-16 08:40:00,32.7,27.8,30.10,NNW,327,1.0,1.0,82,0.00,,,0.00,Wunderground v.1.15,2013-01-16 13:40:00,
2013-01-16 08:50:00,32.7,28.1,30.10,NW,323,1.0,3.0,83,0.00,,,0.00,Wunderground v.1.15,2013-01-16 13:50:00,
2013-01-16 09:00:00,32.7,28.1,30.10,NW,319,1.0,1.0,83,0.00,,,0.00,Wunderground v.1.15,2013-01-16 14:00:00,
2013-01-16 09:10:00,32.6,27.7,30.10,NW,313,1.0,1.0,82,0.00,,,0.00,Wunderground v.1.15,2013-01-16 14:10:00,
2013-01-16 09:20:00,32.4,27.8,30.09,WSW,241,1.0,1.0,83,0.00,,,0.00,Wunderground v.1.15,2013-01-16 14:20:00,
2013-01-16 09:30:00,32.6,27.7,30.10,WSW,258,1.0,1.0,82,0.00,,,0.00,Wunderground v.1.15,2013-01-16 14:30:00,
2013-01-16 09:40:00,32.9,27.4,30.10,WSW,258,0.0,0.0,80,0.00,,,0.00,Wunderground v.1.15,2013-01-16 14:40:00,
2013-01-16 09:50:00,33.2,27.4,30.10,WSW,257,0.0,0.0,79,0.00,,,0.00,Wunderground v.1.15,2013-01-16 14:50:00,
2013-01-16 10:00:00,33.2,27.7,30.11,WSW,244,1.0,2.0,80,0.00,,,0.00,Wunderground v.1.15,2013-01-16 15:00:00,
2013-01-16 10:10:00,33.0,26.9,30.11,NNW,328,2.0,2.0,78,0.00,,,0.00,Wunderground v.1.15,2013-01-16 15:10:00,
2013-01-16 10:20:00,33.1,26.7,30.11,NW,311,2.0,2.0,77,0.00,,,0.00,Wunderground v.1.15,2013-01-16 15:20:00,
2013-01-16 10:30:00,33.1,26.7,30.11,NW,307,2.0,2.0,77,0.00,,,0.00,Wunderground v.1.15,2013-01-16 15:30:00,
2013-01-16 10:40:00,33.3,26.2,30.11,SSW,205,1.0,1.0,75,0.00,,,0.00,Wunderground v.1.15,2013-01-16 15:40:00,
2013-01-16 10:50:00,33.7,26.3,30.10,WSW,243,1.0,1.0,74,0.00,,,0.00,Wunderground v.1.15,2013-01-16 15:50:00,
2013-01-16 11:00:00,33.9,26.8,30.10,WNW,296,2.0,4.0,75,0.00,,,0.00,Wunderground v.1.15,2013-01-16 16:00:00,
2013-01-16 11:10:00,34.2,26.4,30.10,NNW,335,2.0,2.0,73,0.00,,,0.00,Wunderground v.1.15,2013-01-16 16:10:00,
2013-01-16 11:20:00,33.9,25.8,30.09,NNW,333,3.0,3.0,72,0.00,,,0.00,Wunderground v.1.15,2013-01-16 16:20:00,
2013-01-16 11:30:00,34.2,26.8,30.08,WNW,290,1.0,1.0,74,0.00,,,0.00,Wunderground v.1.15,2013-01-16 16:30:00,
2013-01-16 11:40:00,34.3,25.9,30.09,NNW,327,2.0,2.0,71,0.00,,,0.00,Wunderground v.1.15,2013-01-16 16:40:00,
2013-01-16 11:50:00,34.2,26.1,30.10,West,267,2.0,2.0,72,0.00,,,0.00,Wunderground v.1.15,2013-01-16 16:50:00,
2013-01-16 12:00:00,34.4,26.0,30.09,WSW,242,2.0,2.0,71,0.00,,,0.00,Wunderground v.1.15,2013-01-16 17:00:00,
2013-01-16 12:10:00,34.7,26.3,30.09,WSW,250,1.0,2.0,71,0.00,,,0.00,Wunderground v.1.15,2013-01-16 17:10:00,
2013-01-16 12:20:00,35.1,25.6,30.07,West,273,1.0,1.0,68,0.00,,,0.00,Wunderground v.1.15,2013-01-16 17:20:00,
2013-01-16 12:30:00,35.0,24.8,30.07,WSW,237,2.0,3.0,66,0.00,,,0.00,Wunderground v.1.15,2013-01-16 17:30:00,
2013-01-16 12:40:00,34.7,24.9,30.07,West,279,2.0,3.0,67,0.00,,,0.00,Wunderground v.1.15,2013-01-16 17:40:00,
2013-01-16 12:50:00,34.6,25.1,30.06,WSW,246,3.0,3.0,68,0.00,,,0.00,Wunderground v.1.15,2013-01-16 17:50:00,
2013-01-16 13:00:00,35.2,24.6,30.06,WSW,238,2.0,2.0,65,0.00,,,0.00,Wunderground v.1.15,2013-01-16 18:00:00,
2013-01-16 13:10:00,35.4,25.5,30.06,NE,39,2.0,2.0,67,0.00,,,0.00,Wunderground v.1.15,2013-01-16 18:10:00,
2013-01-16 13:20:00,35.7,25.1,30.06,WNW,301,2.0,4.0,65,0.00,,,0.00,Wunderground v.1.15,2013-01-16 18:20:00,
2013-01-16 13:30:00,35.5,25.3,30.05,WSW,257,2.0,2.0,66,0.00,,,0.00,Wunderground v.1.15,2013-01-16 18:30:00,
2013-01-16 13:40:00,35.8,25.5,30.05,WNW,301,1.0,3.0,66,0.00,,,0.00,Wunderground v.1.15,2013-01-16 18:40:00,
2013-01-16 13:50:00,35.9,24.1,30.05,SW,227,2.0,3.0,62,0.00,,,0.00,Wunderground v.1.15,2013-01-16 18:50:00,
2013-01-16 14:00:00,36.2,25.9,30.04,NW,322,1.0,2.0,66,0.00,,,0.00,Wunderground v.1.15,2013-01-16 19:00:00,
2013-01-16 14:10:00,36.3,24.5,30.04,NNW,327,2.0,2.0,62,0.00,,,0.00,Wunderground v.1.15,2013-01-16 19:10:00,
2013-01-16 14:20:00,36.7,24.9,30.03,NW,316,1.0,1.0,62,0.00,,,0.00,Wunderground v.1.15,2013-01-16 19:20:00,
2013-01-16 14:30:00,37.2,24.6,30.03,NW,322,1.0,3.0,60,0.00,,,0.00,Wunderground v.1.15,2013-01-16 19:30:00,
2013-01-16 14:40:00,36.8,26.1,30.02,SSW,209,2.0,2.0,65,0.00,,,0.00,Wunderground v.1.15,2013-01-16 19:40:00,
2013-01-16 14:50:00,36.3,26.0,30.03,SW,215,2.0,2.0,66,0.00,,,0.00,Wunderground v.1.15,2013-01-16 19:50:00,
2013-01-16 15:00:00,36.1,25.1,30.03,WSW,257,2.0,2.0,64,0.00,,,0.00,Wunderground v.1.15,2013-01-16 20:00:00,
2013-01-16 15:10:00,35.9,23.7,30.03,WSW,240,3.0,3.0,61,0.00,,,0.00,Wunderground v.1.15,2013-01-16 20:10:00,
2013-01-16 15:20:00,35.9,23.7,30.03,SW,221,2.0,2.0,61,0.00,,,0.00,Wunderground v.1.15,2013-01-16 20:20:00,
2013-01-16 15:30:00,36.0,23.8,30.04,WSW,249,3.0,3.0,61,0.00,,,0.00,Wunderground v.1.15,2013-01-16 20:30:00,
2013-01-16 15:40:00,35.8,22.9,30.04,South,180,4.0,5.0,59,0.00,,,0.00,Wunderground v.1.15,2013-01-16 20:40:00,
2013-01-16 15:50:00,35.9,23.4,30.05,SSW,213,3.0,3.0,60,0.00,,,0.00,Wunderground v.1.15,2013-01-16 20:50:00,
2013-01-16 16:00:00,35.7,24.7,30.05,SSW,202,3.0,3.0,64,0.00,,,0.00,Wunderground v.1.15,2013-01-16 21:00:00,
2013-01-16 16:10:00,35.2,24.2,30.05,SW,231,5.0,5.0,64,0.00,,,0.00,Wunderground v.1.15,2013-01-16 21:10:00,
2013-01-16 16:20:00,35.1,24.5,30.06,SW,227,4.0,4.0,65,0.00,,,0.00,Wunderground v.1.15,2013-01-16 21:20:00,
2013-01-16 16:30:00,34.9,24.3,30.06,SSW,196,4.0,4.0,65,0.00,,,0.00,Wunderground v.1.15,2013-01-16 21:30:00,
2013-01-16 16:40:00,34.7,23.8,30.07,SW,227,4.0,5.0,64,0.00,,,0.00,Wunderground v.1.15,2013-01-16 21:40:00,
2013-01-16 16:50:00,34.8,23.9,30.08,WSW,238,3.0,3.0,64,0.00,,,0.00,Wunderground v.1.15,2013-01-16 21:50:00,
2013-01-16 17:00:00,34.8,24.2,30.08,SW,234,2.0,2.0,65,0.00,,,0.00,Wunderground v.1.15,2013-01-16 22:00:00,
2013-01-16 17:10:00,34.6,23.7,30.08,SW,235,2.0,2.0,64,0.00,,,0.00,Wunderground v.1.15,2013-01-16 22:10:00,
2013-01-16 17:20:00,34.4,23.8,30.08,SW,215,3.0,3.0,65,0.00,,,0.00,Wunderground v.1.15,2013-01-16 22:20:00,
2013-01-16 17:30:00,34.2,23.7,30.08,SW,232,3.0,3.0,65,0.00,,,0.00,Wunderground v.1.15,2013-01-16 22:30:00,
2013-01-16 17:40:00,34.1,23.9,30.08,SW,220,2.0,3.0,66,0.00,,,0.00,Wunderground v.1.15,2013-01-16 22:40:00,
2013-01-16 17:50:00,33.9,24.1,30.07,SW,227,2.0,2.0,67,0.00,,,0.00,Wunderground v.1.15,2013-01-16 22:50:00,
2013-01-16 18:00:00,33.7,24.3,30.07,SW,221,2.0,2.0,68,0.00,,,0.00,Wunderground v.1.15,2013-01-16 23:00:00,
2013-01-16 18:10:00,33.6,24.9,30.08,SW,215,1.0,1.0,70,0.00,,,0.00,Wunderground v.1.15,2013-01-16 23:10:00,
2013-01-16 18:20:00,33.5,24.8,30.07,SW,214,1.0,1.0,70,0.00,,,0.00,Wunderground v.1.15,2013-01-16 23:20:00,
2013-01-16 18:30:00,33.4,25.0,30.07,SW,214,1.0,3.0,71,0.00,,,0.00,Wunderground v.1.15,2013-01-16 23:30:00,
2013-01-16 18:40:00,33.1,24.4,30.08,SSW,212,2.0,3.0,70,0.00,,,0.00,Wunderground v.1.15,2013-01-16 23:40:00,
2013-01-16 18:50:00,33.1,24.7,30.08,SW,215,1.0,2.0,71,0.00,,,0.00,Wunderground v.1.15,2013-01-16 23:50:00,
2013-01-16 19:00:00,33.2,25.1,30.08,SW,215,1.0,1.0,72,0.00,,,0.00,Wunderground v.1.15,2013-01-17 00:00:00,
2013-01-16 19:10:00,33.3,25.6,30.09,SW,215,1.0,1.0,73,0.00,,,0.00,Wunderground v.1.15,2013-01-17 00:10:00,
2013-01-16 19:20:00,33.1,25.4,30.10,SW,215,1.0,3.0,73,0.00,,,0.00,Wunderground v.1.15,2013-01-17 00:20:00,
2013-01-16 19:30:00,32.8,25.4,30.10,SSW,205,2.0,2.0,74,0.00,,,0.00,Wunderground v.1.15,2013-01-17 00:30:00,
2013-01-16 19:40:00,32.8,25.7,30.09,SSW,213,1.0,1.0,75,0.00,,,0.00,Wunderground v.1.15,2013-01-17 00:40:00,
2013-01-16 19:50:00,32.7,25.6,30.09,SSW,200,2.0,3.0,75,0.00,,,0.00,Wunderground v.1.15,2013-01-17 00:50:00,
2013-01-16 20:00:00,32.6,25.9,30.10,SSW,207,2.0,2.0,76,0.00,,,0.00,Wunderground v.1.15,2013-01-17 01:00:00,
2013-01-16 20:10:00,32.6,25.9,30.10,SW,217,1.0,1.0,76,0.00,,,0.00,Wunderground v.1.15,2013-01-17 01:10:00,
2013-01-16 20:20:00,32.7,26.0,30.11,SW,217,1.0,1.0,76,0.00,,,0.00,Wunderground v.1.15,2013-01-17 01:20:00,
2013-01-16 20:30:00,32.6,25.9,30.11,SW,217,1.0,1.0,76,0.00,,,0.00,Wunderground v.1.15,2013-01-17 01:30:00,
2013-01-16 20:40:00,32.6,25.9,30.12,SW,217,0.0,1.0,76,0.00,,,0.00,Wunderground v.1.15,2013-01-17 01:40:00,
2013-01-16 20:50:00,32.6,25.9,30.12,SW,216,1.0,1.0,76,0.00,,,0.00,Wunderground v.1.15,2013-01-17 01:50:00,
2013-01-16 21:00:00,32.8,26.1,30.12,SW,217,0.0,1.0,76,0.00,,,0.00,Wunderground v.1.15,2013-01-17 02:00:00,
2013-01-16 21:10:00,33.0,26.3,30.13,SW,227,0.0,0.0,76,0.00,,,0.00,Wunderground v.1.15,2013-01-17 02:10:00,
2013-01-16 21:20:00,33.0,26.6,30.13,SW,234,0.0,0.0,77,0.00,,,0.00,Wunderground v.1.15,2013-01-17 02:20:00,
2013-01-16 21:30:00,32.9,26.8,30.13,SW,234,0.0,0.0,78,0.00,,,0.00,Wunderground v.1.15,2013-01-17 02:30:00,
2013-01-16 21:40:00,32.9,26.2,30.13,SW,233,0.0,0.0,76,0.00,,,0.00,Wunderground v.1.15,2013-01-17 02:40:00,
2013-01-16 21:50:00,32.6,26.2,30.13,SW,233,1.0,1.0,77,0.00,,,0.00,Wunderground v.1.15,2013-01-17 02:50:00,
2013-01-16 22:00:00,32.7,26.3,30.13,WSW,254,0.0,1.0,77,0.00,,,0.00,Wunderground v.1.15,2013-01-17 03:00:00,
2013-01-16 22:10:00,32.4,26.0,30.12,SSW,211,1.0,2.0,77,0.00,,,0.00,Wunderground v.1.15,2013-01-17 03:10:00,
2013-01-16 22:20:00,32.4,26.0,30.12,SSW,211,0.0,1.0,77,0.00,,,0.00,Wunderground v.1.15,2013-01-17 03:20:00,
2013-01-16 22:30:00,32.3,26.5,30.12,SSW,211,1.0,2.0,79,0.00,,,0.00,Wunderground v.1.15,2013-01-17 03:30:00,
2013-01-16 22:40:00,32.0,25.9,30.12,SSW,211,1.0,1.0,78,0.00,,,0.00,Wunderground v.1.15,2013-01-17 03:40:00,
2013-01-16 22:50:00,31.8,26.0,30.12,SSW,211,1.0,2.0,79,0.00,,,0.00,Wunderground v.1.15,2013-01-17 03:50:00,
2013-01-16 23:00:00,31.7,25.9,30.13,SW,226,1.0,1.0,79,0.00,,,0.00,Wunderground v.1.15,2013-01-17 04:00:00,
2013-01-16 23:10:00,31.7,25.9,30.13,SW,221,1.0,2.0,79,0.00,,,0.00,Wunderground v.1.15,2013-01-17 04:10:00,
2013-01-16 23:20:00,31.6,25.8,30.13,SW,226,2.0,2.0,79,0.00,,,0.00,Wunderground v.1.15,2013-01-17 04:20:00,
2013-01-16 23:30:00,31.7,25.6,30.13,SW,226,1.0,2.0,78,0.00,,,0.00,Wunderground v.1.15,2013-01-17 04:30:00,
2013-01-16 23:40:00,31.7,25.6,30.13,SSW,206,1.0,1.0,78,0.00,,,0.00,Wunderground v.1.15,2013-01-17 04:40:00,
2013-01-16 23:50:00,31.9,26.1,30.14,SSW,206,1.0,1.0,79,0.00,,,0.00,Wunderground v.1.15,2013-01-17 04:50:00,